Time;durP1;ratioP1;P1;durP2;ratioP2;P2;SDS_P1;SDS_P2;PMS_P1;PMS_P2;Temp;Humidity;BMP_temperature;BMP_pressure;BME280_temperature;BME280_humidity;BME280_pressure;Samples;Min_cycle;Max_cycle;Signal;HPM_P1;HPM_P2
2023/12/21 00:02:23;;;;;;;4.20;1.17;;;;;;;8.30;77.86;99808.03;10212247;28;20043;-64
2023/12/21 00:07:25;;;;;;;2.35;0.88;;;;;;;8.26;77.86;99791.47;10211781;28;20133;-64
2023/12/21 00:12:26;;;;;;;4.80;1.20;;;;;;;8.21;78.02;99793.00;10200867;28;20142;-63
2023/12/21 00:17:28;;;;;;;2.78;0.90;;;;;;;8.14;78.46;99787.53;10227468;28;20047;-64
2023/12/21 00:22:29;;;;;;;2.75;0.98;;;;;;;8.10;78.15;99779.00;10223843;28;20063;-62
2023/12/21 00:27:30;;;;;;;3.08;0.98;;;;;;;8.06;78.82;99758.94;10223829;28;20079;-60
2023/12/21 00:32:32;;;;;;;2.25;0.73;;;;;;;8.02;79.08;99743.41;10224845;28;20271;-60
2023/12/21 00:37:36;;;;;;;2.35;0.68;;;;;;;8.03;79.21;99729.00;10233214;28;20054;-61
2023/12/21 00:42:41;;;;;;;2.40;0.85;;;;;;;8.03;78.99;99716.44;10241925;28;20062;-63
2023/12/21 00:47:42;;;;;;;1.27;0.77;;;;;;;8.06;79.56;99696.56;10245403;28;20138;-63
2023/12/21 00:52:44;;;;;;;2.80;1.25;;;;;;;8.11;79.79;99697.66;10252725;28;20048;-63
2023/12/21 00:57:45;;;;;;;0.73;0.60;;;;;;;8.19;79.88;99704.00;10240303;28;20057;-63
2023/12/21 01:02:47;;;;;;;3.83;0.60;;;;;;;8.23;79.95;99683.88;10234435;28;20061;-63
2023/12/21 01:07:49;;;;;;;3.67;0.70;;;;;;;8.19;80.04;99675.38;10226006;28;20063;-62
2023/12/21 01:12:51;;;;;;;2.90;0.60;;;;;;;8.26;79.68;99668.31;10222908;28;20040;-61
2023/12/21 01:17:53;;;;;;;1.88;0.60;;;;;;;8.26;79.95;99672.84;10228510;28;20043;-61
2023/12/21 01:22:54;;;;;;;0.63;0.43;;;;;;;8.29;80.10;99672.47;10223649;28;20048;-62
2023/12/21 01:27:56;;;;;;;0.70;0.40;;;;;;;8.30;80.29;99668.78;10239084;28;20645;-62
2023/12/21 01:32:57;;;;;;;1.95;0.73;;;;;;;8.34;80.09;99659.38;10241993;28;20047;-63
2023/12/21 01:37:59;;;;;;;1.77;0.30;;;;;;;8.33;80.18;99658.56;10231055;28;20058;-63
2023/12/21 01:43:01;;;;;;;1.13;0.30;;;;;;;8.34;80.49;99659.38;10238506;28;20043;-62
2023/12/21 01:48:03;;;;;;;1.20;0.28;;;;;;;8.33;80.55;99645.19;10232459;28;20047;-62
2023/12/21 01:53:04;;;;;;;2.17;0.30;;;;;;;8.35;80.49;99628.91;10234732;28;20037;-63
2023/12/21 01:58:06;;;;;;;0.32;0.20;;;;;;;8.34;80.59;99632.59;10234317;28;20047;-63
2023/12/21 02:03:08;;;;;;;0.30;0.20;;;;;;;8.29;80.41;99618.91;10231923;28;20043;-62
2023/12/21 02:08:09;;;;;;;0.20;0.20;;;;;;;8.36;80.79;99625.22;10233224;28;20099;-63
2023/12/21 02:13:11;;;;;;;0.30;0.20;;;;;;;8.44;80.26;99621.69;10254147;28;20040;-62
2023/12/21 02:18:13;;;;;;;0.38;0.20;;;;;;;8.43;80.43;99588.72;10241047;28;20189;-64
2023/12/21 02:23:18;;;;;;;0.20;0.10;;;;;;;8.44;80.34;99558.22;10236309;28;20134;-62
2023/12/21 02:28:19;;;;;;;0.63;0.20;;;;;;;8.48;80.27;99554.16;10245151;28;20126;-62
2023/12/21 02:33:21;;;;;;;1.25;0.15;;;;;;;8.50;80.62;99535.25;10256807;28;20039;-63
2023/12/21 02:38:23;;;;;;;0.68;0.20;;;;;;;8.51;80.50;99532.41;10208521;28;20059;-62
2023/12/21 02:43:25;;;;;;;0.40;0.20;;;;;;;8.55;80.59;99538.22;10214239;28;20046;-64
2023/12/21 02:48:26;;;;;;;0.20;0.17;;;;;;;8.62;80.42;99549.03;10207767;28;20051;-64
2023/12/21 02:53:28;;;;;;;0.20;0.10;;;;;;;8.58;80.71;99543.19;10210788;28;20110;-63
2023/12/21 02:58:29;;;;;;;0.95;0.17;;;;;;;8.57;80.90;99524.63;10215250;28;20054;-63
2023/12/21 03:03:30;;;;;;;0.10;0.10;;;;;;;8.56;81.01;99531.84;10209940;28;20051;-63
2023/12/21 03:08:32;;;;;;;0.32;0.10;;;;;;;8.66;80.51;99518.19;10212275;28;20498;-64
2023/12/21 03:13:33;;;;;;;3.92;0.63;;;;;;;8.61;80.58;99518.72;10218615;28;20052;-64
2023/12/21 03:18:36;;;;;;;1.05;0.20;;;;;;;8.73;80.89;99492.31;10218070;28;20800;-64
2023/12/21 03:23:40;;;;;;;1.35;0.10;;;;;;;8.77;80.44;99479.34;10211982;28;20062;-64
2023/12/21 03:28:47;;;;;;;0.30;0.10;;;;;;;8.73;80.80;99457.50;10213997;28;20194;-64
2023/12/21 03:33:48;;;;;;;1.20;0.10;;;;;;;8.74;80.74;99462.63;10209383;28;20394;-66
2023/12/21 03:38:50;;;;;;;1.48;0.10;;;;;;;8.78;80.59;99441.66;10217151;28;20736;-66
2023/12/21 03:43:51;;;;;;;1.48;0.10;;;;;;;8.82;80.63;99447.47;10209449;28;20368;-64
2023/12/21 03:48:53;;;;;;;0.10;0.10;;;;;;;8.90;80.48;99431.28;10211309;28;20075;-65
2023/12/21 03:53:54;;;;;;;1.75;0.10;;;;;;;8.95;80.56;99409.31;10210974;28;20056;-66
2023/12/21 03:58:56;;;;;;;0.70;0.10;;;;;;;9.03;80.35;99403.84;10213618;28;20048;-67
2023/12/21 04:03:57;;;;;;;0.40;0.10;;;;;;;9.06;80.33;99398.06;10209516;28;20052;-67
2023/12/21 04:08:58;;;;;;;0.90;0.10;;;;;;;9.10;80.42;99418.13;10228897;28;20048;-68
2023/12/21 04:14:00;;;;;;;0.10;0.10;;;;;;;9.17;80.02;99407.47;10213430;28;20044;-66
2023/12/21 04:19:03;;;;;;;0.10;0.00;;;;;;;9.20;80.10;99389.16;10211770;28;20082;-66
2023/12/21 04:24:06;;;;;;;0.10;0.10;;;;;;;9.27;80.14;99354.38;10209971;28;20142;-66
2023/12/21 04:29:07;;;;;;;0.65;0.10;;;;;;;9.32;79.81;99342.03;10214318;29;20047;-66
2023/12/21 04:34:08;;;;;;;0.85;0.10;;;;;;;9.37;79.59;99343.31;10217217;28;20058;-66
2023/12/21 04:39:10;;;;;;;1.10;0.10;;;;;;;9.43;79.37;99342.53;10210226;28;20047;-65
2023/12/21 04:44:12;;;;;;;0.20;0.00;;;;;;;9.46;79.32;99332.25;10230674;28;20039;-65
2023/12/21 04:49:14;;;;;;;2.17;1.30;;;;;;;9.52;79.25;99328.78;10198667;28;20043;-66
2023/12/21 04:54:16;;;;;;;0.47;0.10;;;;;;;9.45;79.39;99302.94;10208894;28;20055;-65
2023/12/21 04:59:17;;;;;;;0.15;0.10;;;;;;;9.48;79.19;99287.28;10211006;29;20059;-66
2023/12/21 05:04:18;;;;;;;0.22;0.10;;;;;;;9.53;79.28;99302.78;10232950;28;20044;-62
2023/12/21 05:09:20;;;;;;;0.73;0.10;;;;;;;9.57;79.05;99289.81;10219790;28;20150;-63
2023/12/21 05:14:22;;;;;;;3.08;0.28;;;;;;;9.64;78.97;99288.03;10223840;29;20078;-63
2023/12/21 05:19:24;;;;;;;0.52;0.20;;;;;;;9.71;78.82;99273.59;10226505;29;20051;-62
2023/12/21 05:24:25;;;;;;;0.65;0.10;;;;;;;9.75;78.80;99281.25;10221390;29;20057;-62
2023/12/21 05:29:27;;;;;;;0.17;0.08;;;;;;;9.83;78.63;99248.91;10226517;28;20063;-62
2023/12/21 05:34:28;;;;;;;1.95;0.10;;;;;;;9.87;78.22;99226.00;10230094;29;20057;-60
2023/12/21 05:39:30;;;;;;;0.22;0.00;;;;;;;9.89;78.40;99221.25;10226580;28;20139;-60
2023/12/21 05:44:31;;;;;;;0.17;0.05;;;;;;;9.91;78.25;99214.69;10231395;28;20425;-62
2023/12/21 05:49:32;;;;;;;0.00;0.00;;;;;;;9.99;78.05;99218.19;10232007;28;20048;-62
2023/12/21 05:54:34;;;;;;;0.10;0.00;;;;;;;10.00;77.89;99193.84;10233336;28;20110;-65
2023/12/21 05:59:37;;;;;;;0.85;0.10;;;;;;;9.98;77.68;99185.16;10230964;28;20111;-64
2023/12/21 06:04:38;;;;;;;0.55;0.00;;;;;;;9.90;77.61;99183.47;10233683;28;20398;-64
2023/12/21 06:09:41;;;;;;;0.05;0.00;;;;;;;9.84;77.52;99183.47;10224761;28;20549;-63
2023/12/21 06:14:42;;;;;;;0.10;0.10;;;;;;;9.80;78.16;99163.44;10238829;28;20481;-65
2023/12/21 06:19:44;;;;;;;0.00;0.00;;;;;;;9.83;78.04;99163.00;10260369;28;20130;-65
2023/12/21 06:24:45;;;;;;;0.25;0.10;;;;;;;9.85;78.05;99158.25;10249199;28;20044;-64
2023/12/21 06:29:47;;;;;;;1.40;0.10;;;;;;;9.95;77.52;99133.72;10228660;29;20521;-64
2023/12/21 06:34:48;;;;;;;0.98;0.13;;;;;;;10.06;77.45;99144.72;10244633;28;20345;-65
2023/12/21 06:39:49;;;;;;;1.17;0.00;;;;;;;10.23;76.94;99141.63;10250599;28;20107;-65
2023/12/21 06:44:51;;;;;;;1.10;0.00;;;;;;;10.22;76.87;99124.72;10260197;28;20051;-65
2023/12/21 06:49:52;;;;;;;0.10;0.08;;;;;;;10.15;77.01;99137.31;10248615;28;20047;-64
2023/12/21 06:54:54;;;;;;;0.03;0.00;;;;;;;10.15;76.95;99115.84;10245719;28;20047;-65
2023/12/21 06:59:55;;;;;;;0.00;0.00;;;;;;;10.23;76.67;99110.25;10245665;28;20107;-65
2023/12/21 07:04:57;;;;;;;0.13;0.00;;;;;;;10.26;76.98;99120.56;10246628;28;20053;-65
2023/12/21 07:09:59;;;;;;;0.10;0.10;;;;;;;10.27;76.41;99116.06;10242782;28;20129;-64
2023/12/21 07:15:03;;;;;;;0.10;0.00;;;;;;;10.40;76.45;99124.13;10249377;28;20518;-64
2023/12/21 07:20:05;;;;;;;0.08;0.00;;;;;;;10.43;76.02;99121.06;10229030;28;20120;-65
2023/12/21 07:25:07;;;;;;;0.05;0.00;;;;;;;10.50;76.01;99107.63;10240782;28;20048;-65
2023/12/21 07:30:09;;;;;;;0.20;0.10;;;;;;;10.56;75.82;99101.41;10255722;28;20051;-65
2023/12/21 07:35:11;;;;;;;0.17;0.10;;;;;;;10.60;75.68;99081.16;10255292;28;20047;-63
2023/12/21 07:40:12;;;;;;;0.32;0.30;;;;;;;10.54;75.76;99081.16;10235575;28;20059;-65
2023/12/21 07:45:14;;;;;;;0.10;0.10;;;;;;;10.49;76.17;99082.63;10238746;28;20239;-66
2023/12/21 07:50:15;;;;;;;0.45;0.10;;;;;;;10.56;76.04;99074.53;10220354;28;20047;-66
2023/12/21 07:55:17;;;;;;;0.10;0.10;;;;;;;10.51;75.84;99072.50;10222385;28;20143;-65
2023/12/21 08:00:19;;;;;;;0.08;0.00;;;;;;;10.58;75.46;99055.53;10228250;28;20055;-65
2023/12/21 08:05:22;;;;;;;0.52;0.00;;;;;;;10.60;75.61;99048.91;10207688;28;20131;-65
2023/12/21 08:10:24;;;;;;;0.82;0.10;;;;;;;10.64;75.15;99060.91;10212137;28;20051;-66
2023/12/21 08:15:26;;;;;;;0.90;0.00;;;;;;;10.71;75.42;99040.22;10205300;28;20043;-67
2023/12/21 08:20:29;;;;;;;0.10;0.10;;;;;;;10.75;75.49;99019.13;10200052;28;20055;-67
2023/12/21 08:25:31;;;;;;;0.20;0.10;;;;;;;10.68;75.36;99013.78;10210991;28;20048;-66
2023/12/21 08:30:33;;;;;;;0.15;0.10;;;;;;;10.61;75.36;98999.50;10207015;28;20039;-67
2023/12/21 08:35:34;;;;;;;0.20;0.10;;;;;;;10.57;75.29;98987.53;10206812;28;20147;-69
2023/12/21 08:40:36;;;;;;;0.20;0.10;;;;;;;10.46;75.58;98977.44;10224260;28;20070;-67
2023/12/21 08:45:38;;;;;;;0.20;0.10;;;;;;;10.36;76.18;98977.84;10220261;28;20046;-70
2023/12/21 08:50:39;;;;;;;0.20;0.10;;;;;;;10.25;76.52;98970.41;10239618;28;20289;-70
2023/12/21 08:55:41;;;;;;;0.20;0.10;;;;;;;10.21;76.26;98947.66;10214238;28;20051;-68
2023/12/21 09:00:44;;;;;;;0.57;0.17;;;;;;;10.19;76.43;98931.78;10225657;28;20047;-69
2023/12/21 09:05:46;;;;;;;1.02;0.15;;;;;;;10.21;76.98;98893.97;10204285;28;20051;-68
2023/12/21 09:10:48;;;;;;;0.75;0.10;;;;;;;10.28;76.71;98884.84;10207179;28;20048;-69
2023/12/21 09:15:49;;;;;;;0.20;0.10;;;;;;;10.37;76.58;98861.31;10210747;28;20079;-68
2023/12/21 09:20:51;;;;;;;0.45;0.10;;;;;;;10.41;76.90;98841.06;10214675;28;20051;-68
2023/12/21 09:25:52;;;;;;;0.22;0.10;;;;;;;10.45;76.79;98812.72;10217995;28;20062;-68
2023/12/21 09:30:55;;;;;;;1.73;0.10;;;;;;;10.58;77.06;98821.75;10216511;28;20058;-68
2023/12/21 09:35:58;;;;;;;0.50;0.30;;;;;;;10.70;76.84;98802.06;10214030;28;20043;-69
2023/12/21 09:40:59;;;;;;;0.10;0.03;;;;;;;10.81;76.56;98784.44;10216424;28;20083;-68
2023/12/21 09:46:01;;;;;;;0.47;0.10;;;;;;;10.90;76.18;98782.31;10210203;28;20050;-67
2023/12/21 09:51:04;;;;;;;0.38;0.10;;;;;;;10.94;76.22;98785.38;10217194;28;20532;-67
2023/12/21 09:56:07;;;;;;;0.45;0.00;;;;;;;10.99;75.79;98781.00;10240169;28;20126;-66
2023/12/21 10:01:08;;;;;;;0.20;0.10;;;;;;;11.05;75.58;98787.38;10218031;28;20130;-66
2023/12/21 10:06:11;;;;;;;0.22;0.10;;;;;;;10.99;76.10;98783.69;10224231;28;20114;-67
2023/12/21 10:11:13;;;;;;;0.20;0.13;;;;;;;10.95;75.82;98760.16;10219249;28;20474;-67
2023/12/21 10:16:16;;;;;;;0.10;0.10;;;;;;;11.00;75.86;98752.25;10219078;28;20050;-67
2023/12/21 10:21:19;;;;;;;0.20;0.10;;;;;;;11.02;75.72;98742.94;10219440;28;20135;-67
2023/12/21 10:26:21;;;;;;;1.17;0.10;;;;;;;11.00;75.77;98728.03;10226322;28;20076;-67
2023/12/21 10:31:22;;;;;;;0.08;0.08;;;;;;;10.64;77.20;98706.22;10240610;28;20479;-66
2023/12/21 10:36:26;;;;;;;0.10;0.00;;;;;;;10.51;77.66;98690.97;10229464;28;20047;-66
2023/12/21 10:41:29;;;;;;;0.32;0.00;;;;;;;10.47;77.74;98681.72;10210179;28;20051;-66
2023/12/21 10:46:30;;;;;;;0.10;0.10;;;;;;;10.41;77.95;98661.09;10219317;28;20058;-65
2023/12/21 10:51:37;;;;;;;0.00;0.00;;;;;;;10.32;78.24;98657.81;10220992;28;20450;-66
2023/12/21 10:56:42;;;;;;;0.10;0.10;;;;;;;10.31;78.46;98640.06;10217851;28;20425;-68
2023/12/21 11:01:43;;;;;;;0.47;0.10;;;;;;;10.31;78.61;98623.16;10215383;28;21658;-68
2023/12/21 11:06:46;;;;;;;0.45;0.10;;;;;;;10.29;78.79;98609.91;10213818;28;20138;-67
2023/12/21 11:11:48;;;;;;;0.10;0.08;;;;;;;10.31;79.01;98590.91;10221301;28;20075;-67
2023/12/21 11:16:56;;;;;;;0.20;0.13;;;;;;;10.36;79.52;98596.44;10225473;28;20114;-68
2023/12/21 11:21:58;;;;;;;0.10;0.00;;;;;;;10.38;79.61;98582.81;10227128;29;20044;-68
2023/12/21 11:27:01;;;;;;;3.60;0.10;;;;;;;10.42;79.84;98559.84;10216475;28;20051;-68
2023/12/21 11:32:05;;;;;;;0.20;0.10;;;;;;;10.38;79.72;98556.75;10217881;28;20047;-66
2023/12/21 11:37:25;;;;;;;0.55;0.00;;;;;;;10.33;79.95;98532.44;10209734;28;20066;-68
2023/12/21 11:42:37;;;;;;;0.20;0.10;;;;;;;10.35;80.31;98537.56;10216964;28;20043;-68
2023/12/21 11:47:42;;;;;;;4.57;0.10;;;;;;;10.40;80.16;98527.81;10210488;28;20491;-69
2023/12/21 11:52:44;;;;;;;0.30;0.10;;;;;;;10.40;80.59;98543.13;10222796;28;20147;-70
2023/12/21 11:57:48;;;;;;;0.28;0.00;;;;;;;10.46;80.70;98544.91;10213203;28;20070;-69
2023/12/21 12:02:50;;;;;;;1.75;0.68;;;;;;;10.51;80.30;98513.66;10215939;28;20043;-68
2023/12/21 12:07:52;;;;;;;0.68;0.22;;;;;;;10.52;80.83;98523.38;10209276;28;20066;-67
2023/12/21 12:12:54;;;;;;;0.10;0.00;;;;;;;10.52;80.69;98482.25;10214360;28;20051;-67
2023/12/21 12:17:56;;;;;;;0.10;0.00;;;;;;;10.52;80.96;98480.41;10211563;28;20114;-68
2023/12/21 12:22:57;;;;;;;0.05;0.05;;;;;;;10.59;81.03;98471.47;10195998;28;20044;-68
2023/12/21 12:27:59;;;;;;;1.10;0.10;;;;;;;10.57;80.98;98447.50;10214826;28;20483;-68
2023/12/21 12:33:03;;;;;;;0.52;0.00;;;;;;;10.62;80.74;98455.69;10210575;28;20055;-66
2023/12/21 12:38:06;;;;;;;0.20;0.00;;;;;;;10.74;80.88;98434.25;10210512;28;20131;-67
2023/12/21 12:43:08;;;;;;;0.13;0.10;;;;;;;10.70;80.93;98415.09;10208124;28;20043;-68
2023/12/21 12:48:10;;;;;;;0.50;0.10;;;;;;;10.75;81.23;98421.66;10222216;28;20040;-67
2023/12/21 12:53:14;;;;;;;0.40;0.15;;;;;;;10.67;81.30;98412.84;10215635;28;20036;-67
2023/12/21 12:58:16;;;;;;;2.05;0.00;;;;;;;10.76;81.30;98381.09;10213692;28;20051;-64
2023/12/21 13:03:17;;;;;;;0.10;0.10;;;;;;;10.73;81.08;98396.88;10209032;28;20044;-65
2023/12/21 13:08:19;;;;;;;0.32;0.08;;;;;;;10.76;81.56;98393.72;10196712;28;20067;-65
2023/12/21 13:13:20;;;;;;;0.20;0.20;;;;;;;10.81;81.50;98400.06;10202614;28;20082;-69
2023/12/21 13:18:22;;;;;;;0.00;0.00;;;;;;;10.77;81.94;98393.50;10213608;28;20071;-64
2023/12/21 13:23:24;;;;;;;0.00;0.00;;;;;;;10.87;82.38;98403.72;10201137;28;20517;-68
2023/12/21 13:28:25;;;;;;;0.35;0.00;;;;;;;10.84;82.65;98374.59;10194318;28;20055;-71
2023/12/21 13:33:27;;;;;;;0.10;0.00;;;;;;;10.87;82.41;98382.22;10217514;28;20040;-69
2023/12/21 13:38:28;;;;;;;0.30;0.00;;;;;;;10.93;82.54;98378.63;10211579;28;20063;-69
2023/12/21 13:43:30;;;;;;;0.93;0.00;;;;;;;10.97;82.44;98385.19;10216404;28;20054;-66
2023/12/21 13:48:32;;;;;;;0.00;0.00;;;;;;;10.95;82.87;98355.03;10232284;28;20062;-68
2023/12/21 13:53:34;;;;;;;0.20;0.10;;;;;;;11.01;82.23;98343.38;10212947;28;20051;-68
2023/12/21 13:58:35;;;;;;;1.52;0.00;;;;;;;10.98;82.55;98308.03;10219090;28;20043;-66
2023/12/21 14:03:37;;;;;;;2.50;0.08;;;;;;;10.94;82.26;98313.09;10218836;28;20179;-65
2023/12/21 14:08:38;;;;;;;0.10;0.00;;;;;;;10.99;81.93;98323.94;10219153;28;20055;-68
2023/12/21 14:13:40;;;;;;;0.75;0.00;;;;;;;11.14;80.48;98312.78;10221668;28;20130;-67
2023/12/21 14:18:42;;;;;;;0.50;0.00;;;;;;;11.29;79.49;98285.44;10220238;28;20116;-67
2023/12/21 14:23:43;;;;;;;0.10;0.00;;;;;;;11.45;79.34;98303.63;10213767;28;20302;-66
2023/12/21 14:28:46;;;;;;;0.00;0.00;;;;;;;11.60;78.56;98297.75;10238607;28;20051;-67
2023/12/21 14:33:57;;;;;;;1.38;0.10;;;;;;;11.78;77.51;98296.00;10230033;28;20040;-67
2023/12/21 14:38:59;;;;;;;0.40;0.00;;;;;;;11.87;77.00;98286.53;10217791;28;20083;-66
2023/12/21 14:44:00;;;;;;;0.52;0.00;;;;;;;11.97;76.15;98296.75;10240687;28;20046;-66
2023/12/21 14:49:02;;;;;;;2.92;0.10;;;;;;;12.17;74.53;98285.59;10231238;28;20260;-67
2023/12/21 14:54:03;;;;;;;0.10;0.00;;;;;;;12.36;72.78;98281.69;10263382;23;20039;-86
2023/12/21 14:59:05;;;;;;;0.85;0.00;;;;;;;12.39;72.87;98278.50;10256995;28;20047;-82
2023/12/21 15:04:07;;;;;;;0.88;0.15;;;;;;;12.40;72.42;98269.38;10267031;28;20047;-82
2023/12/21 15:09:09;;;;;;;0.80;0.10;;;;;;;12.49;72.45;98275.19;10268168;28;20047;-82
2023/12/21 15:14:11;;;;;;;0.10;0.00;;;;;;;12.47;72.06;98270.03;10274025;28;20042;-82
2023/12/21 15:19:12;;;;;;;1.38;0.00;;;;;;;12.20;72.98;98293.16;10262544;28;20034;-83
2023/12/21 15:24:14;;;;;;;0.82;0.20;;;;;;;11.52;74.87;98277.41;10268263;28;20402;-84
2023/12/21 15:29:16;;;;;;;0.30;0.03;;;;;;;11.41;74.23;98325.81;10255356;28;20081;-86
2023/12/21 15:34:17;;;;;;;0.70;0.20;;;;;;;11.64;71.23;98288.16;10278758;28;20091;-84
2023/12/21 15:39:19;;;;;;;2.10;0.17;;;;;;;11.99;69.24;98303.53;10283218;28;20047;-83
2023/12/21 15:44:21;;;;;;;0.10;0.00;;;;;;;12.23;68.12;98281.94;10291836;28;20058;-83
2023/12/21 15:49:23;;;;;;;0.03;0.00;;;;;;;12.28;68.21;98273.94;10304812;28;20113;-82
2023/12/21 15:54:25;;;;;;;2.33;0.10;;;;;;;12.43;67.02;98257.28;10299735;28;20061;-82
2023/12/21 15:59:26;;;;;;;0.45;0.00;;;;;;;12.48;66.22;98290.53;10295157;28;20078;-83
2023/12/21 16:04:28;;;;;;;0.85;0.10;;;;;;;12.66;64.56;98254.50;10286649;28;20066;-83
2023/12/21 16:09:31;;;;;;;2.50;0.10;;;;;;;12.78;62.59;98294.06;10273350;28;20043;-83
2023/12/21 16:14:32;;;;;;;0.70;0.00;;;;;;;12.90;62.60;98290.25;10287211;28;20051;-82
2023/12/21 16:19:34;;;;;;;0.45;0.10;;;;;;;12.96;62.32;98276.88;10306568;28;20051;-82
2023/12/21 16:24:35;;;;;;;2.08;0.10;;;;;;;12.71;62.90;98323.84;10300638;28;20039;-82
2023/12/21 16:29:39;;;;;;;1.67;0.20;;;;;;;12.13;66.23;98338.28;10270550;28;20054;-84
2023/12/21 16:34:43;;;;;;;1.17;0.10;;;;;;;11.02;70.23;98363.00;10310783;28;20074;-84
2023/12/21 16:39:45;;;;;;;2.53;0.17;;;;;;;10.26;72.83;98340.97;10295278;28;20047;-85
2023/12/21 16:44:50;;;;;;;2.10;0.28;;;;;;;10.16;74.08;98349.53;10247656;28;20122;-85
2023/12/21 16:49:52;;;;;;;1.58;0.25;;;;;;;9.98;75.20;98325.38;10267633;28;20050;-85
2023/12/21 16:54:54;;;;;;;2.05;0.20;;;;;;;9.90;75.81;98331.84;10267351;28;20043;-82
2023/12/21 16:59:55;;;;;;;0.28;0.10;;;;;;;9.95;75.20;98372.25;10285399;28;20105;-83
2023/12/21 17:04:57;;;;;;;2.35;0.10;;;;;;;9.89;75.40;98378.50;10301292;28;20039;-82
2023/12/21 17:09:59;;;;;;;0.80;0.30;;;;;;;9.79;76.91;98337.94;10241168;28;20047;-82
2023/12/21 17:15:01;;;;;;;0.65;0.10;;;;;;;9.89;76.98;98333.72;10245821;28;20493;-82
2023/12/21 17:20:04;;;;;;;1.08;0.10;;;;;;;9.99;76.27;98365.44;10259569;28;20114;-83
2023/12/21 17:25:06;;;;;;;1.00;0.10;;;;;;;10.27;73.72;98345.31;10255931;28;20039;-83
2023/12/21 17:30:08;;;;;;;0.43;0.10;;;;;;;10.58;70.93;98376.56;10252887;28;20052;-83
2023/12/21 17:35:12;;;;;;;1.65;0.10;;;;;;;10.81;69.29;98359.75;10252297;28;20786;-82
2023/12/21 17:40:14;;;;;;;1.65;0.30;;;;;;;11.06;66.06;98359.66;10264157;28;20039;-83
2023/12/21 17:45:16;;;;;;;2.42;0.20;;;;;;;11.23;65.82;98345.53;10249063;28;20054;-82
2023/12/21 17:50:18;;;;;;;4.45;0.20;;;;;;;11.37;64.78;98368.50;10239402;28;20604;-82
2023/12/21 17:55:21;;;;;;;1.40;0.20;;;;;;;11.49;64.13;98358.59;10256606;28;20046;-82
2023/12/21 18:00:23;;;;;;;3.60;0.30;;;;;;;11.57;63.44;98381.66;10270692;28;20118;-81
2023/12/21 18:05:25;;;;;;;2.05;0.20;;;;;;;11.61;63.45;98382.84;10253014;28;20139;-81
2023/12/21 18:10:26;;;;;;;1.30;0.20;;;;;;;11.68;62.55;98394.28;10257343;28;20053;-81
2023/12/21 18:15:28;;;;;;;2.38;0.20;;;;;;;11.74;63.13;98405.19;10254272;28;20126;-83
2023/12/21 18:20:30;;;;;;;3.33;0.30;;;;;;;10.74;67.12;98412.75;10247580;28;20046;-83
2023/12/21 18:25:31;;;;;;;2.70;0.30;;;;;;;9.90;71.25;98476.78;10275142;28;20031;-83
2023/12/21 18:30:33;;;;;;;5.13;0.43;;;;;;;9.20;73.93;98559.88;10277688;28;20043;-85
2023/12/21 18:35:37;;;;;;;0.00;0.00;;;;;;;8.46;76.52;98564.56;10282582;28;20565;-85
2023/12/21 18:40:39;;;;;;;0.00;0.00;;;;;;;8.04;77.25;98572.75;10264952;28;20058;-83
2023/12/21 18:45:47;;;;;;;0.00;0.00;;;;;;;7.73;78.14;98533.16;10267298;28;20094;-82
2023/12/21 18:50:50;;;;;;;0.00;0.00;;;;;;;7.51;78.62;98500.41;10310804;28;20114;-82
2023/12/21 18:55:52;;;;;;;0.00;0.00;;;;;;;7.45;79.11;98517.25;10302297;28;20046;-85
2023/12/21 19:00:54;;;;;;;0.00;0.00;;;;;;;7.39;79.66;98528.75;10295939;28;20066;-87
2023/12/21 19:05:56;;;;;;;0.00;0.00;;;;;;;7.41;80.63;98556.94;10281459;28;20069;-87
2023/12/21 19:10:58;;;;;;;0.00;0.00;;;;;;;7.49;81.25;98580.00;10277072;28;20114;-88
2023/12/21 19:16:02;;;;;;;0.00;0.00;;;;;;;7.58;81.15;98511.94;10267901;28;20047;-88
2023/12/21 19:21:07;;;;;;;0.00;0.00;;;;;;;7.55;81.82;98563.16;10268232;28;20047;-87
2023/12/21 19:26:11;;;;;;;0.00;0.00;;;;;;;7.46;82.05;98549.13;10303935;28;20054;-85
2023/12/21 19:31:16;;;;;;;0.00;0.00;;;;;;;7.44;82.43;98580.56;10314498;28;20051;-85
2023/12/21 19:36:21;;;;;;;0.00;0.00;;;;;;;7.54;81.69;98554.31;10298141;28;20047;-84
2023/12/21 19:41:22;;;;;;;0.00;0.00;;;;;;;7.62;81.74;98561.34;10300959;28;20046;-84
2023/12/21 19:46:24;;;;;;;0.00;0.00;;;;;;;7.65;81.60;98544.88;10292403;28;20055;-85
2023/12/21 19:51:26;;;;;;;0.00;0.00;;;;;;;7.52;82.02;98587.59;10261974;28;20054;-87
2023/12/21 19:56:28;;;;;;;0.00;0.00;;;;;;;7.55;82.16;98622.78;10262752;28;20078;-85
2023/12/21 20:01:31;;;;;;;0.00;0.00;;;;;;;7.61;81.97;98712.09;10228194;28;20106;-85
2023/12/21 20:06:33;;;;;;;0.00;0.00;;;;;;;7.36;82.55;98807.94;10247543;28;20074;-87
2023/12/21 20:11:35;;;;;;;0.00;0.00;;;;;;;6.62;82.53;98757.56;10228365;29;20395;-83
2023/12/21 20:16:36;;;;;;;0.00;0.00;;;;;;;6.50;82.91;98711.88;10234801;28;20098;-84
2023/12/21 20:21:38;;;;;;;0.00;0.00;;;;;;;6.33;82.96;98660.56;10231576;28;20175;-82
2023/12/21 20:26:40;;;;;;;0.00;0.00;;;;;;;6.35;81.94;98707.38;10224036;28;20086;-82
2023/12/21 20:31:42;;;;;;;0.00;0.00;;;;;;;6.52;81.67;98688.47;10225841;28;20094;-83
2023/12/21 20:36:43;;;;;;;0.00;0.00;;;;;;;6.84;80.51;98708.47;10211612;28;20039;-82
2023/12/21 20:41:49;;;;;;;0.00;0.00;;;;;;;7.00;79.09;98699.34;10239305;28;20055;-82
2023/12/21 20:46:50;;;;;;;0.00;0.00;;;;;;;7.14;78.35;98685.06;10230070;28;20047;-82
2023/12/21 20:51:52;;;;;;;0.00;0.00;;;;;;;7.31;77.35;98701.63;10218594;28;20043;-83
2023/12/21 20:56:54;;;;;;;0.00;0.00;;;;;;;7.51;76.26;98749.06;10218696;28;20506;-83
2023/12/21 21:01:56;;;;;;;0.00;0.00;;;;;;;7.64;75.15;98749.16;10238901;28;20166;-82
2023/12/21 21:06:58;;;;;;;0.00;0.00;;;;;;;7.73;73.93;98753.28;10240082;28;20051;-82
2023/12/21 21:12:00;;;;;;;0.00;0.00;;;;;;;7.80;73.66;98784.59;10244639;28;20086;-83
2023/12/21 21:17:02;;;;;;;0.00;0.00;;;;;;;7.27;73.06;98809.13;10222228;29;20044;-83
2023/12/21 21:22:04;;;;;;;0.00;0.00;;;;;;;6.85;74.77;98797.41;10237077;28;20414;-83
2023/12/21 21:27:06;;;;;;;0.00;0.00;;;;;;;6.72;74.27;98806.97;10237672;28;20047;-83
2023/12/21 21:32:07;;;;;;;0.00;0.00;;;;;;;6.86;73.83;98783.88;10230939;28;20039;-84
2023/12/21 21:37:09;;;;;;;1.98;0.05;;;;;;;7.10;73.03;98832.59;10237206;28;20047;-83
2023/12/21 21:42:10;;;;;;;2.05;0.50;;;;;;;7.08;73.52;98830.13;10229194;28;20067;-83
2023/12/21 21:47:12;;;;;;;7.13;0.40;;;;;;;7.05;73.74;98824.31;10228422;28;20349;-82
2023/12/21 21:52:14;;;;;;;2.95;1.05;;;;;;;6.73;74.85;98834.47;10227320;28;20130;-81
2023/12/21 21:57:15;;;;;;;1.38;0.30;;;;;;;6.65;75.20;98829.25;10206322;28;20478;-81
2023/12/21 22:02:17;;;;;;;4.22;0.68;;;;;;;6.62;75.17;98817.13;10234264;29;20048;-82
2023/12/21 22:07:19;;;;;;;4.88;0.50;;;;;;;6.53;75.42;98839.59;10228771;28;20044;-82
2023/12/21 22:12:21;;;;;;;6.53;0.30;;;;;;;6.43;76.16;98849.75;10217120;28;20070;-82
2023/12/21 22:17:22;;;;;;;1.83;0.10;;;;;;;6.41;76.21;98833.09;10225510;28;20066;-82
2023/12/21 22:22:24;;;;;;;2.97;0.30;;;;;;;6.54;76.27;98827.91;10220343;28;20338;-81
2023/12/21 22:27:25;;;;;;;5.00;0.30;;;;;;;6.57;76.33;98848.06;10232014;28;20054;-82
2023/12/21 22:32:27;;;;;;;5.03;0.40;;;;;;;6.66;75.47;98877.13;10219718;28;20043;-82
2023/12/21 22:37:29;;;;;;;1.80;0.30;;;;;;;6.76;75.47;98900.88;10232209;28;20509;-82
2023/12/21 22:42:31;;;;;;;2.90;0.40;;;;;;;6.38;76.68;98874.34;10229643;28;20135;-81
2023/12/21 22:47:33;;;;;;;0.95;0.57;;;;;;;6.05;77.65;98904.03;10232572;28;20098;-81
2023/12/21 22:52:35;;;;;;;0.10;0.00;;;;;;;5.76;78.48;98889.59;10223515;29;20051;-82
2023/12/21 22:57:36;;;;;;;0.10;0.03;;;;;;;5.67;78.39;98863.25;10263150;28;20055;-82
2023/12/21 23:02:38;;;;;;;0.60;0.10;;;;;;;5.66;78.79;98824.25;10262786;28;20046;-82
2023/12/21 23:07:40;;;;;;;0.80;0.08;;;;;;;5.73;78.56;98852.66;10265972;28;20045;-82
2023/12/21 23:12:42;;;;;;;2.65;0.20;;;;;;;5.87;79.05;98850.19;10263027;28;20130;-82
2023/12/21 23:17:48;;;;;;;3.40;0.10;;;;;;;6.05;78.56;98872.03;10233178;28;20057;-82
2023/12/21 23:22:51;;;;;;;0.55;0.10;;;;;;;6.20;78.51;98879.19;10245286;28;20389;-83
2023/12/21 23:27:53;;;;;;;2.80;0.10;;;;;;;6.34;77.87;98865.88;10245473;28;20054;-83
2023/12/21 23:32:55;;;;;;;6.30;0.20;;;;;;;6.44;77.58;98851.41;10266794;28;20666;-83